createdAt,value
2023-03-22T00:02:09.946Z,95142.97
2023-03-22T00:04:37.869Z,95139.81
2023-03-22T00:07:07.156Z,95144.34
2023-03-22T00:09:35.054Z,95137.19
2023-03-22T00:12:03.027Z,95135.22
2023-03-22T00:14:31.034Z,95125.59
2023-03-22T00:16:59.312Z,95123.00
2023-03-22T00:19:29.176Z,95120.81
2023-03-22T00:21:57.091Z,95120.38
2023-03-22T00:24:26.355Z,95112.56
2023-03-22T00:26:54.210Z,95109.53
2023-03-22T00:29:22.829Z,95114.31
2023-03-22T00:31:52.036Z,95110.69
2023-03-22T00:34:19.983Z,95119.50
2023-03-22T00:36:48.464Z,95119.78
2023-03-22T00:39:16.417Z,95112.88
2023-03-22T00:41:45.687Z,95107.94
2023-03-22T00:44:13.593Z,95105.47
2023-03-22T00:46:41.489Z,95106.34
2023-03-22T00:49:09.382Z,95102.72
2023-03-22T00:51:37.395Z,95094.75
2023-03-22T00:54:05.410Z,95094.75
2023-03-22T00:56:33.957Z,95100.41
2023-03-22T00:59:11.498Z,95093.38
2023-03-22T01:01:39.576Z,95088.59
2023-03-22T01:04:07.921Z,95094.88
2023-03-22T01:06:36.314Z,95089.50
2023-03-22T01:09:05.042Z,95086.25
2023-03-22T01:11:32.964Z,95090.22
2023-03-22T01:14:01.281Z,95083.00
2023-03-22T01:16:30.711Z,95075.19
2023-03-22T01:18:58.755Z,95076.19
2023-03-22T01:21:26.913Z,95072.00
2023-03-22T01:23:54.823Z,95075.19
2023-03-22T01:26:22.768Z,95071.41
2023-03-22T01:28:51.026Z,95069.81
2023-03-22T01:31:18.951Z,95060.72
2023-03-22T01:33:48.351Z,95062.19
2023-03-22T01:36:16.261Z,95064.06
2023-03-22T01:38:44.177Z,95060.91
2023-03-22T01:41:12.159Z,95054.09
2023-03-22T01:43:42.890Z,95053.31
2023-03-22T01:46:11.585Z,95053.31
2023-03-22T01:48:46.109Z,95060.09
2023-03-22T01:51:19.662Z,95051.72
2023-03-22T01:54:06.847Z,95047.94
2023-03-22T01:56:38.198Z,95046.13
2023-03-22T01:59:08.879Z,95044.91
2023-03-22T02:01:54.009Z,95043.72
2023-03-22T02:04:25.735Z,95054.94
2023-03-22T02:06:58.008Z,95044.16
2023-03-22T02:09:29.872Z,95035.34
2023-03-22T02:12:10.084Z,95036.13
2023-03-22T02:14:58.811Z,95031.72
2023-03-22T02:18:01.699Z,95031.31
2023-03-22T02:21:20.708Z,95032.47
2023-03-22T02:24:23.572Z,95043.91
2023-03-22T02:27:27.758Z,95038.09
2023-03-22T02:30:07.657Z,95028.09
2023-03-22T02:32:55.309Z,95016.53
2023-03-22T02:35:43.116Z,95016.16
2023-03-22T02:38:58.801Z,95009.00
2023-03-22T02:41:39.412Z,95014.06
2023-03-22T02:44:16.072Z,95019.84
2023-03-22T02:46:47.934Z,95020.66
2023-03-22T02:49:22.964Z,95023.47
2023-03-22T02:51:59.060Z,95028.66
2023-03-22T02:54:34.505Z,95025.06
2023-03-22T02:57:09.369Z,95034.44
2023-03-22T02:59:39.836Z,95021.44
2023-03-22T03:02:10.688Z,95032.69
2023-03-22T03:04:43.503Z,95027.59
2023-03-22T03:07:15.485Z,95024.41
2023-03-22T03:09:45.128Z,95020.81
2023-03-22T03:12:20.272Z,95024.41
2023-03-22T03:14:48.974Z,95030.84
2023-03-22T03:17:26.421Z,95027.03
2023-03-22T03:20:08.200Z,95029.63
2023-03-22T03:22:46.119Z,95024.41
2023-03-22T03:25:23.484Z,95025.25
2023-03-22T03:28:00.622Z,95018.88
2023-03-22T03:30:34.600Z,95022.06
2023-03-22T03:33:09.317Z,95022.50
2023-03-22T03:35:42.179Z,95028.50
2023-03-22T03:38:16.123Z,95033.75
2023-03-22T03:40:47.106Z,95036.34
2023-03-22T03:43:17.546Z,95032.16
2023-03-22T03:45:46.162Z,95034.34
2023-03-22T03:48:19.992Z,95028.13
2023-03-22T03:50:50.274Z,95031.31
2023-03-22T03:53:18.558Z,95031.47
2023-03-22T03:55:46.613Z,95038.06
2023-03-22T03:58:17.236Z,95034.47
2023-03-22T04:00:47.577Z,95043.34
2023-03-22T04:03:15.991Z,95040.16
2023-03-22T04:06:10.455Z,95036.19
2023-03-22T04:08:41.484Z,95039.97
2023-03-22T04:11:09.895Z,95036.34
2023-03-22T04:13:39.292Z,95043.72
2023-03-22T04:16:12.958Z,95036.94
2023-03-22T04:18:40.978Z,95035.34
2023-03-22T04:21:12.181Z,95036.19
2023-03-22T04:24:10.918Z,95038.28
2023-03-22T04:26:42.495Z,95043.06
2023-03-22T04:29:24.580Z,95038.22
2023-03-22T04:31:58.896Z,95037.84
2023-03-22T04:34:32.616Z,95041.47
2023-03-22T04:37:03.502Z,95041.88
2023-03-22T04:39:37.392Z,95040.88
2023-03-22T04:42:27.761Z,95038.28
2023-03-22T04:45:12.016Z,95038.66
2023-03-22T04:47:41.601Z,95024.63
2023-03-22T04:50:10.628Z,95022.25
2023-03-22T04:52:48.025Z,95024.69
2023-03-22T04:55:16.025Z,95026.28
2023-03-22T04:57:45.540Z,95021.47
2023-03-22T05:00:15.618Z,95019.06
2023-03-22T05:02:44.633Z,95022.69
2023-03-22T05:05:22.706Z,95026.72
2023-03-22T05:07:51.997Z,95016.72
2023-03-22T05:10:20.295Z,95020.69
2023-03-22T05:12:48.411Z,95019.09
2023-03-22T05:15:21.019Z,95007.53
2023-03-22T05:17:50.953Z,95009.56
2023-03-22T05:20:19.004Z,95003.94
2023-03-22T05:22:56.796Z,95002.34
2023-03-22T05:25:27.139Z,95009.97
2023-03-22T05:27:55.249Z,95011.56
2023-03-22T05:30:43.964Z,95018.84
2023-03-22T05:33:23.095Z,95020.53
2023-03-22T05:35:55.565Z,95020.69
2023-03-22T05:38:24.674Z,95022.28
2023-03-22T05:40:55.308Z,95022.44
2023-03-22T05:43:23.420Z,95023.22
2023-03-22T05:45:53.621Z,95023.56
2023-03-22T05:48:38.757Z,95032.38
2023-03-22T05:51:07.981Z,95027.59
2023-03-22T05:53:36.656Z,95028.75
2023-03-22T05:56:13.880Z,95024.03
2023-03-22T05:58:43.996Z,95031.66
2023-03-22T06:01:17.545Z,95027.66
2023-03-22T06:03:49.400Z,95028.81
2023-03-22T06:06:28.104Z,95030.63
2023-03-22T06:09:17.849Z,95034.00
2023-03-22T06:11:50.696Z,95033.22
2023-03-22T06:14:18.955Z,95044.78
2023-03-22T06:16:59.287Z,95041.19
2023-03-22T06:19:27.258Z,95037.19
2023-03-22T06:21:56.281Z,95033.63
2023-03-22T06:24:27.178Z,95038.00
2023-03-22T06:26:55.253Z,95038.00
2023-03-22T06:29:23.368Z,95045.94
2023-03-22T06:31:54.425Z,95046.69
2023-03-22T06:34:23.783Z,95053.88
2023-03-22T06:36:51.831Z,95041.81
2023-03-22T06:39:32.649Z,95043.56
2023-03-22T06:42:01.096Z,95042.50
2023-03-22T06:44:29.408Z,95043.28
2023-03-22T06:47:08.924Z,95050.75
2023-03-22T06:49:59.804Z,95057.13
2023-03-22T06:52:40.793Z,95049.91
2023-03-22T06:55:10.443Z,95042.59
2023-03-22T06:57:38.417Z,95048.28
2023-03-22T07:00:07.917Z,95046.41
2023-03-22T07:02:36.387Z,95038.88
2023-03-22T07:05:28.426Z,95048.69
2023-03-22T07:07:56.507Z,95050.34
2023-03-22T07:10:26.341Z,95044.56
2023-03-22T07:12:54.380Z,95041.53
2023-03-22T07:15:24.614Z,95031.03
2023-03-22T07:17:59.056Z,95039.44
2023-03-22T07:20:28.634Z,95038.91
2023-03-22T07:22:57.615Z,95039.59
2023-03-22T07:25:28.971Z,95041.97
2023-03-22T07:28:08.010Z,95041.47
2023-03-22T07:30:37.857Z,95053.31
2023-03-22T07:33:07.059Z,95055.50
2023-03-22T07:35:37.788Z,95056.38
2023-03-22T07:38:06.868Z,95065.44
2023-03-22T07:40:35.707Z,95069.41
2023-03-22T07:43:04.721Z,95072.44
2023-03-22T07:45:42.617Z,95070.09
2023-03-22T07:48:42.294Z,95071.69
2023-03-22T07:51:31.213Z,95070.44
2023-03-22T07:53:59.451Z,95074.25
2023-03-22T07:56:27.589Z,95070.00
2023-03-22T07:58:55.743Z,95077.09
2023-03-22T08:01:24.704Z,95066.19
2023-03-22T08:04:09.253Z,95069.94
2023-03-22T08:06:47.688Z,95071.19
2023-03-22T08:09:15.927Z,95076.09
2023-03-22T08:11:43.892Z,95077.13
2023-03-22T08:14:11.859Z,95071.19
2023-03-22T08:16:41.698Z,95069.16
2023-03-22T08:19:09.758Z,95070.31
2023-03-22T08:21:38.797Z,95073.16
2023-03-22T08:24:15.551Z,95077.47
2023-03-22T08:27:09.641Z,95071.22
2023-03-22T08:29:47.715Z,95065.09
2023-03-22T08:32:16.389Z,95063.72
2023-03-22T08:34:44.835Z,95063.63
2023-03-22T08:37:13.899Z,95064.44
2023-03-22T08:39:45.911Z,95053.41
2023-03-22T08:42:27.604Z,95063.25
2023-03-22T08:44:55.557Z,95058.03
2023-03-22T08:47:26.389Z,95053.41
2023-03-22T08:49:58.720Z,95052.38
2023-03-22T08:52:39.878Z,95053.97
2023-03-22T08:55:30.185Z,95056.69
2023-03-22T08:58:11.271Z,95056.69
2023-03-22T09:00:49.982Z,95058.03
2023-03-22T09:03:28.725Z,95054.63
2023-03-22T09:05:56.942Z,95044.16
2023-03-22T09:08:24.867Z,95037.56
2023-03-22T09:11:00.667Z,95047.31
2023-03-22T09:13:31.079Z,95052.75
2023-03-22T09:16:02.377Z,95055.25
2023-03-22T09:18:33.479Z,95042.94
2023-03-22T09:21:05.784Z,95041.34
2023-03-22T09:23:41.973Z,95046.13
2023-03-22T09:26:13.057Z,95040.88
2023-03-22T09:28:41.366Z,95039.94
2023-03-22T09:31:11.839Z,95048.50
2023-03-22T09:33:41.887Z,95045.84
2023-03-22T09:36:11.942Z,95045.38
2023-03-22T09:38:42.124Z,95044.44
2023-03-22T09:41:17.377Z,95048.56
2023-03-22T09:43:49.759Z,95045.38
2023-03-22T09:46:23.264Z,95043.19
2023-03-22T09:48:51.978Z,95037.34
2023-03-22T09:51:38.523Z,95036.47
2023-03-22T09:54:15.356Z,95033.56
2023-03-22T09:56:48.893Z,95034.75
2023-03-22T09:59:23.045Z,95026.28
2023-03-22T10:01:57.376Z,95032.44
2023-03-22T10:04:37.230Z,95033.25
2023-03-22T10:07:11.736Z,95027.84
2023-03-22T10:09:47.250Z,95024.69
2023-03-22T10:12:24.875Z,95014.22
2023-03-22T10:15:01.083Z,95016.28
2023-03-22T10:17:30.724Z,95015.78
2023-03-22T10:20:05.436Z,95008.47
2023-03-22T10:22:37.060Z,95011.81
2023-03-22T10:25:07.776Z,95007.53
2023-03-22T10:27:38.411Z,95005.28
2023-03-22T10:30:11.467Z,95009.31
2023-03-22T10:32:56.673Z,95006.63
2023-03-22T10:35:25.741Z,94999.81
2023-03-22T10:37:55.872Z,95001.88
2023-03-22T10:40:27.144Z,95000.59
2023-03-22T10:43:00.674Z,94994.09
2023-03-22T10:45:29.706Z,94984.06
2023-03-22T10:48:01.147Z,94991.81
2023-03-22T10:50:33.479Z,94989.56
2023-03-22T10:53:05.594Z,94983.16
2023-03-22T10:55:33.638Z,94988.19
2023-03-22T10:58:15.698Z,94985.66
2023-03-22T11:00:49.346Z,94981.97
2023-03-22T11:03:37.257Z,94984.16
2023-03-22T11:06:09.986Z,94983.78
2023-03-22T11:08:46.628Z,94982.66
2023-03-22T11:11:22.032Z,94980.59
2023-03-22T11:13:57.329Z,94982.78
2023-03-22T11:16:25.484Z,94973.81
2023-03-22T11:18:53.820Z,94977.53
2023-03-22T11:21:27.336Z,94972.28
2023-03-22T11:23:59.331Z,94970.78
2023-03-22T11:26:30.882Z,94968.28
2023-03-22T11:29:08.251Z,94967.28
2023-03-22T11:31:55.616Z,94963.13
2023-03-22T11:34:27.166Z,94962.69
2023-03-22T11:36:57.174Z,94964.63
2023-03-22T11:39:28.348Z,94964.41
2023-03-22T11:42:01.323Z,94959.03
2023-03-22T11:44:35.514Z,94955.88
2023-03-22T11:47:05.768Z,94955.59
2023-03-22T11:49:43.218Z,94949.34
2023-03-22T11:52:13.875Z,94944.56
2023-03-22T11:54:43.836Z,94943.56
2023-03-22T11:57:17.432Z,94940.44
2023-03-22T11:59:56.359Z,94927.09
2023-03-22T12:02:28.746Z,94929.50
2023-03-22T12:05:06.129Z,94924.28
2023-03-22T12:07:36.640Z,94923.25
2023-03-22T12:10:08.454Z,94920.59
2023-03-22T12:12:41.223Z,94924.28
2023-03-22T12:15:17.086Z,94922.72
2023-03-22T12:17:50.172Z,94919.56
2023-03-22T12:20:26.854Z,94919.09
2023-03-22T12:22:56.334Z,94918.56
2023-03-22T12:25:28.202Z,94915.91
2023-03-22T12:27:58.254Z,94916.44
2023-03-22T12:30:31.204Z,94912.25
2023-03-22T12:33:03.703Z,94907.00
2023-03-22T12:35:34.449Z,94910.69
2023-03-22T12:38:10.988Z,94911.72
2023-03-22T12:40:42.156Z,94903.03
2023-03-22T12:43:17.059Z,94898.56
2023-03-22T12:45:50.235Z,94900.16
2023-03-22T12:48:21.749Z,94895.41
2023-03-22T12:50:54.093Z,94890.16
2023-03-22T12:53:26.786Z,94898.56
2023-03-22T12:55:56.868Z,94887.50
2023-03-22T12:58:27.192Z,94885.44
2023-03-22T13:00:59.982Z,94882.25
2023-03-22T13:03:31.210Z,94882.75
2023-03-22T13:06:06.125Z,94884.34
2023-03-22T13:09:13.075Z,94879.59
2023-03-22T13:11:41.274Z,94874.56
2023-03-22T13:14:12.559Z,94869.56
2023-03-22T13:16:51.949Z,94874.78
2023-03-22T13:19:30.008Z,94868.47
2023-03-22T13:22:17.642Z,94862.34
2023-03-22T13:25:06.366Z,94866.31
2023-03-22T13:27:37.961Z,94859.66
2023-03-22T13:30:15.285Z,94855.69
2023-03-22T13:32:51.995Z,94848.81
2023-03-22T13:35:24.835Z,94855.09
2023-03-22T13:37:53.286Z,94842.16
2023-03-22T13:40:30.970Z,94843.97
2023-03-22T13:43:12.200Z,94843.47
2023-03-22T13:45:59.451Z,94840.28
2023-03-22T13:48:40.920Z,94838.84
2023-03-22T13:51:14.856Z,94834.75
2023-03-22T13:53:47.534Z,94835.28
2023-03-22T13:56:34.040Z,94838.41
2023-03-22T13:59:04.990Z,94838.88
2023-03-22T14:01:36.248Z,94835.13
2023-03-22T14:04:10.655Z,94827.69
2023-03-22T14:06:46.110Z,94832.31
2023-03-22T14:09:21.982Z,94829.06
2023-03-22T14:11:54.824Z,94829.38
2023-03-22T14:14:28.394Z,94821.88
2023-03-22T14:17:04.909Z,94829.06
2023-03-22T14:19:35.965Z,94822.63
